• Join FlightAware (Why Join?)
  • Login
  • US Flag 
10:59PM EDT


 

Airport Tracker/Info


-or-


 

Live Flight TrackerFlight Track Log ✈ EJA831 ✈ 24-Apr-2013 ✈ KAPF - KLEX

Flight Track Log - Related Links

Times and Time Zones

All times are in EDT time to prevent confusion due to time zone crossing. See the EJA831 flight status page for this flight to view local times or setup timezone preferences in your user account.

Time Position Orientation Groundspeed Altitude Reporting Facility
EDT Latitude Longitude Course Direction KTS MPH feet Rate Location/Type
02:07PM 26.1600 -81.9139 340° North 225 259 6,200  Level Miami Center
02:08PM 26.1781 -81.9978 284° West 253 291 9,000 2,700 Climbing Miami Center
02:09PM 26.2017 -82.0961 285° West 281 323 11,600 2,460 Climbing Miami Center
02:10PM 26.2250 -82.2011 284° West 328 377 14,000 2,400 Climbing Miami Center
02:11PM 26.2528 -82.2975 288° West 328 377 16,400 2,340 Climbing Miami Center
02:12PM 26.1952 -82.3883 340° North  Level FlightAware Approximate
02:12PM 26.3258 -82.3539 325° Northwest 300 345 18,700  Level Miami Center
02:13PM 26.2939 -82.4294 340° North  Level FlightAware Approximate
02:13PM 26.4100 -82.3928 338° Northwest 308 354 21,200  Level Miami Center
02:14PM 26.4939 -82.4336 336° Northwest 313 360 23,600 2,100 Climbing Miami Center
02:15PM 26.5594 -82.4622 339° North 319 367 25,500 2,100 Climbing Miami Center
02:16PM 26.6456 -82.5036 337° Northwest 312 359 27,800 1,800 Climbing Miami Center
02:17PM 26.7275 -82.5447 336° Northwest 312 359 29,200 1,380 Climbing Miami Center
02:18PM 26.8136 -82.5839 338° Northwest 318 366 30,600 1,440 Climbing Miami Center
02:19PM 26.8997 -82.6253 337° Northwest 329 379 32,100 1,440 Climbing Miami Center
02:20PM 26.9878 -82.6644 338° Northwest 334 384 33,500 1,380 Climbing Miami Center
02:21PM 27.0717 -82.7061 336° Northwest 334 384 34,900 1,380 Climbing Miami Center
02:22PM 27.1556 -82.7453 337° Northwest 329 379 36,300 1,380 Climbing Miami Center
02:23PM 27.2397 -82.7844 338° Northwest 329 379 37,700 1,320 Climbing Miami Center
02:24PM 27.3194 -82.8192 339° North 324 373 39,000 1,200 Climbing Miami Center
02:25PM 27.4136 -82.8636 337° Northwest 324 373 40,100 960 Climbing Miami Center
02:28PM 27.5867 -82.9489 336° Northwest 305 351 42,300 780 Climbing Jacksonville Center
02:29PM 27.6617 -82.9817 339° North 294 338 42,900 300 Climbing Jacksonville Center
02:30PM 27.7367 -83.0192 336° Northwest 294 338 43,000  Climbing Jacksonville Center
02:31PM 27.8161 -83.0567 337° Northwest 301 346 43,000  Level Jacksonville Center
02:32PM 27.8972 -83.0969 336° Northwest 306 352 43,000  Level Jacksonville Center
02:33PM 27.9828 -83.1369 338° Northwest 319 367 43,000  Level Jacksonville Center
02:34PM 28.0808 -83.1419 357° North 325 374 43,000  Level Jacksonville Center
02:35PM 28.1831 -83.1375 North 349 402 43,000  Level Jacksonville Center
02:36PM 28.2853 -83.1283 North 356 410 43,000  Level Jacksonville Center
02:37PM 28.3875 -83.1333 358° North 363 418 43,000  Level Jacksonville Center
02:38PM 28.4836 -83.1547 349° North 357 411 43,000  Level Jacksonville Center
02:39PM 28.5817 -83.1786 348° North 352 405 43,000  Level Jacksonville Center
02:40PM 28.6775 -83.2003 349° North 352 405 43,000  Level Jacksonville Center
02:41PM 28.7778 -83.2242 348° North 352 405 43,000  Level Jacksonville Center
02:42PM 28.8736 -83.2483 348° North 352 405 43,000  Level Jacksonville Center
02:43PM 28.9694 -83.2722 348° North 352 405 43,000  Level Jacksonville Center
02:44PM 29.0675 -83.2942 349° North 357 411 43,000  Level Jacksonville Center
02:45PM 29.1678 -83.3183 348° North 357 411 43,000  Level Jacksonville Center
02:46PM 29.2678 -83.3425 348° North 357 411 43,000  Level Jacksonville Center
02:47PM 29.3681 -83.3667 348° North 357 411 43,000  Level Jacksonville Center
02:48PM 29.4639 -83.3911 347° North 357 411 43,000  Level Jacksonville Center
02:49PM 29.5639 -83.4156 348° North 357 411 43,000  Level Jacksonville Center
02:50PM 29.6619 -83.4400 348° North 357 411 43,000  Level Jacksonville Center
02:51PM 29.7642 -83.4644 348° North 357 411 43,000  Level Jacksonville Center
02:52PM 29.8747 -83.4889 349° North 357 411 43,000  Level Jacksonville Center
02:53PM 29.9747 -83.5136 348° North 357 411 43,000  Level Jacksonville Center
02:54PM 30.0750 -83.5358 349° North 357 411 43,000  Level Jacksonville Center
02:55PM 30.1750 -83.5606 348° North 362 417 43,000  Level Jacksonville Center
02:56PM 30.2731 -83.5878 347° North 362 417 43,000  Level Jacksonville Center
02:57PM 30.3753 -83.6100 349° North 362 417 43,000  Level Jacksonville Center
02:58PM 30.4772 -83.6325 349° North 362 417 43,000  Level Jacksonville Center
02:59PM 30.5650 -83.6550 348° North 367 422 43,000  Level Jacksonville Center
03:00PM 30.6669 -83.6822 347° North 362 417 43,000  Level Jacksonville Center
03:01PM 30.7692 -83.7072 348° North 367 422 43,000  Level Jacksonville Center
03:02PM 30.8692 -83.7300 349° North 372 428 43,000  Level Jacksonville Center
03:03PM 30.9736 -83.7575 347° North 377 434 43,000  Level Jacksonville Center
03:04PM 31.0778 -83.7853 347° North 377 434 43,000  Level Jacksonville Center
03:05PM 31.1839 -83.8106 348° North 377 434 43,000  Level Jacksonville Center
03:06PM 31.2839 -83.8358 348° North 372 428 43,000  Level Jacksonville Center
03:08PM 31.4919 -83.8903 347° North 389 448 43,000  Level Atlanta Center
03:09PM 31.5942 -83.9219 345° North 384 442 43,000  Level Atlanta Center
03:10PM 31.7006 -83.9461 349° North 384 442 43,000  Level Atlanta Center
03:11PM 31.8050 -83.9706 349° North 379 436 43,000  Level Atlanta Center
03:12PM 31.9136 -83.9947 349° North 373 429 43,000  Level Atlanta Center
03:13PM 32.0158 -84.0217 347° North 373 429 43,000  Level Atlanta Center
03:14PM 32.1139 -84.0461 348° North 373 429 43,000  Level Atlanta Center
03:15PM 32.2183 -84.0708 349° North 373 429 43,000  Level Atlanta Center
03:16PM 32.3206 -84.0978 347° North 373 429 43,000  Level Atlanta Center
03:17PM 32.4208 -84.1225 348° North 373 429 43,000  Level Atlanta Center
03:18PM 32.5231 -84.1497 347° North 373 429 43,000  Level Atlanta Center
03:19PM 32.6211 -84.1744 348° North 373 429 43,000  Level Atlanta Center
03:20PM 32.7256 -84.2042 347° North 373 429 43,000  Level Atlanta Center
03:21PM 32.8153 -84.2267 348° North 373 429 43,000  Level Atlanta Center
03:22PM 32.9175 -84.2492 350° North 373 429 43,000  Level Atlanta Center
03:23PM 33.0175 -84.2792 346° North 373 429 43,000  Level Atlanta Center
03:25PM 33.2303 -84.3344 348° North 373 429 43,000  Level Atlanta Center
03:26PM 33.3325 -84.3594 348° North 373 429 43,000  Level Atlanta Center
03:27PM 33.4328 -84.3847 348° North 373 429 43,000  Level Atlanta Center
03:28PM 33.5369 -84.4125 347° North 373 429 43,000  Level Atlanta Center
03:29PM 33.6308 -84.4331 350° North 373 429 43,000  Level Atlanta Center
03:30PM 33.7436 -84.4136 North 380 437 43,000  Level Atlanta Center
03:31PM 33.8522 -84.3864 12° North 393 452 43,000  Level Atlanta Center
03:32PM 33.9628 -84.3594 11° North 400 460 43,000  Level Atlanta Center
03:33PM 34.0756 -84.3347 10° North 400 460 43,000  Level Atlanta Center
03:34PM 34.2053 -84.3025 12° North 422 486 43,000  Level Atlanta Center
03:35PM 34.3158 -84.2753 11° North 417 480 43,000  Level Atlanta Center
03:36PM 34.4286 -84.2478 11° North 410 472 43,000  Level Atlanta Center
03:37PM 34.5414 -84.2281 North 410 472 43,000  Level Atlanta Center
03:38PM 34.6478 -84.2358 357° North 393 452 43,000  Level Atlanta Center
03:39PM 34.7561 -84.2436 357° North 393 452 43,000  Level Atlanta Center
03:40PM 34.8647 -84.2514 357° North 388 447 43,000 -480 Level Atlanta Center
03:41PM 34.9608 -84.2592 356° North 381 438 42,100 -1,200 Descending Atlanta Center
03:42PM 35.0692 -84.2647 358° North 381 438 40,600 -1,560 Descending Atlanta Center
03:43PM 35.1778 -84.2750 356° North 386 444 39,000 -1,560 Descending Atlanta Center
03:44PM 35.2903 -84.2806 358° North 386 444 37,500 -1,500 Descending Atlanta Center
03:45PM 35.4031 -84.2883 357° North 391 450 36,000 -1,260 Descending Atlanta Center
03:46PM 35.5197 -84.2964 357° North 402 463 35,000 -540 Descending Atlanta Center
03:47PM 35.6386 -84.3069 356° North 412 474 35,000 -660 Level Atlanta Center
03:48PM 35.7639 -84.3125 358° North 425 489 33,700 -2,100 Descending Atlanta Center
03:49PM 35.8847 -84.3206 357° North 435 501 30,900 -2,160 Descending Atlanta Center
03:50PM 36.0058 -84.3108 North 435 501 29,400 -1,440 Descending Atlanta Center
03:51PM 36.1311 -84.2856 North 441 507 28,100 -1,680 Descending Atlanta Center
03:52PM 36.3703 -84.2681 North 439 505 24,700 -1,440 Descending Indianapolis Center
03:53PM 36.4858 -84.2836 354° North 424 488 24,000 -360 Descending Indianapolis Center
03:54PM 36.5978 -84.2981 354° North 422 486 24,000  Level Indianapolis Center
03:56PM 36.7183 -84.3122 355° North 428 493 24,000  Level Indianapolis Center
03:57PM 36.8586 -84.3308 354° North 434 499 24,000  Level Indianapolis Center
03:58PM 36.9775 -84.3456 354° North 428 493 24,000 -780 Level Indianapolis Center
03:59PM 37.0964 -84.3617 354° North 428 493 22,500 -1,680 Descending Indianapolis Center
04:00PM 37.2097 -84.3744 355° North 414 476 20,500 -2,100 Descending Indianapolis Center
04:01PM 37.3156 -84.3894 354° North 385 443 18,200 -2,220 Descending Indianapolis Center
04:02PM 37.4139 -84.4025 354° North 361 415 16,000 -2,400 Descending Indianapolis Center
04:03PM 37.5281 -84.4172 354° North 352 405 13,300 -2,340 Descending Indianapolis Center
04:04PM 37.6231 -84.4292 354° North 345 397 11,200 -2,040 Descending Indianapolis Center
04:05PM 37.7089 -84.4403 354° North 321 369 9,200 -1,920 Descending Indianapolis Center
04:06PM 37.7933 -84.4517 354° North 308 354 7,300 -1,140 Descending Indianapolis Center
04:07PM 37.8678 -84.4603 355° North 280 322 6,900 -300 Descending Indianapolis Center
04:08PM 37.9372 -84.4686 355° North 221 254 6,700 -720 Descending Indianapolis Center
04:09PM 37.9931 -84.4511 14° North 227 261 5,500 -900 Descending Indianapolis Center
04:10PM 38.0406 -84.4119 33° Northeast 222 255 4,900 -300 Descending Indianapolis Center
04:11PM 38.0867 -84.3750 32° Northeast 207 238 4,900  Level Indianapolis Center
04:12PM 38.1319 -84.3386 32° Northeast 201 231 4,900 -420 Level Indianapolis Center
04:13PM 38.1825 -84.3375 North 198 228 4,100 -900 Descending Indianapolis Center
04:14PM 38.2044 -84.3872 299° West 174 200 3,100 -540 Descending Indianapolis Center
04:15PM 38.1808 -84.4353 238° Southwest 163 188 3,100  Level Indianapolis Center
04:16PM 38.1494 -84.4811 229° Southwest 166 191 3,100 -180 Level Indianapolis Center
04:17PM 38.1142 -84.5203 221° Southwest 168 193 2,800 -540 Descending Indianapolis Center
04:18PM 38.0797 -84.5589 221° Southwest 160 184 2,100 -720 Descending Indianapolis Center